Time,TemperatureF,DewpointF,PressureIn,WindDirection,WindDirectionDegrees,WindSpeedMPH,WindSpeedGustMPH,Humidity,HourlyPrecipIn,Conditions,Clouds,dailyrainin,SolarRadiationWatts/m^2,SoftwareType,DateUTC
2013-02-21 00:01:00,2.3,-1.9,30.48,NNE,24,0.0,0.0,82,0.00,,---,0.00,0.00,VWS V14.00,2013-02-21 06:01:00,
2013-02-21 00:06:00,2.2,-2.0,30.48,NNE,24,0.0,0.0,82,0.00,,---,0.00,0.00,VWS V14.00,2013-02-21 06:06:00,
2013-02-21 00:11:00,2.0,-2.2,30.48,NNE,24,0.0,0.0,82,0.00,,---,0.00,0.00,VWS V14.00,2013-02-21 06:11:00,
2013-02-21 00:16:00,1.9,-2.1,30.48,NNE,24,0.0,0.0,83,0.00,,---,0.00,0.00,VWS V14.00,2013-02-21 06:16:00,
2013-02-21 00:22:00,1.7,-2.3,30.48,NNE,24,0.0,0.0,83,0.00,,---,0.00,0.00,VWS V14.00,2013-02-21 06:22:00,
2013-02-21 00:27:00,1.6,-2.4,30.49,NNE,24,0.0,0.0,83,0.00,,---,0.00,0.00,VWS V14.00,2013-02-21 06:27:00,
2013-02-21 00:32:00,1.4,-2.5,30.49,NNE,24,0.0,0.0,83,0.00,,---,0.00,0.00,VWS V14.00,2013-02-21 06:32:00,
2013-02-21 00:37:00,1.3,-2.4,30.49,NNE,24,0.0,0.0,84,0.00,,---,0.00,0.00,VWS V14.00,2013-02-21 06:37:00,
2013-02-21 00:42:00,1.2,-2.5,30.49,NNE,24,0.0,0.0,84,0.00,,---,0.00,0.00,VWS V14.00,2013-02-21 06:42:00,
2013-02-21 00:47:00,1.1,-2.6,30.49,NNE,24,0.0,0.0,84,0.00,,---,0.00,0.00,VWS V14.00,2013-02-21 06:47:00,
2013-02-21 00:52:00,1.0,-2.7,30.49,NNE,24,0.0,0.0,84,0.00,,---,0.00,0.00,VWS V14.00,2013-02-21 06:52:00,
2013-02-21 00:57:00,0.8,-2.9,30.49,NNE,24,0.0,0.0,84,0.00,,---,0.00,0.00,VWS V14.00,2013-02-21 06:57:00,
2013-02-21 01:02:00,0.7,-3.0,30.49,NNE,24,0.0,0.0,84,0.00,,---,0.00,0.00,VWS V14.00,2013-02-21 07:02:00,
2013-02-21 01:07:00,0.5,-2.9,30.49,NNE,24,0.0,0.0,85,0.00,,---,0.00,0.00,VWS V14.00,2013-02-21 07:07:00,
2013-02-21 01:12:00,0.4,-3.0,30.49,NNE,24,0.0,0.0,85,0.00,,---,0.00,0.00,VWS V14.00,2013-02-21 07:12:00,
2013-02-21 01:18:00,0.4,-3.0,30.49,NNE,24,0.0,0.0,85,0.00,,---,0.00,0.00,VWS V14.00,2013-02-21 07:18:00,
2013-02-21 01:23:00,0.2,-3.2,30.50,NNE,24,0.0,0.0,85,0.00,,---,0.00,0.00,VWS V14.00,2013-02-21 07:23:00,
2013-02-21 01:28:00,0.2,-3.2,30.49,NNE,24,0.0,0.0,85,0.00,,---,0.00,0.00,VWS V14.00,2013-02-21 07:28:00,
2013-02-21 01:33:00,0.1,-3.3,30.50,NNE,24,0.0,1.0,85,0.00,,---,0.00,0.00,VWS V14.00,2013-02-21 07:33:00,
2013-02-21 01:38:00,0.1,-3.4,30.50,NNE,24,0.0,1.0,85,0.00,,---,0.00,0.00,VWS V14.00,2013-02-21 07:38:00,
2013-02-21 01:43:00,-0.1,-3.3,30.50,NNE,24,0.0,1.0,86,0.00,,---,0.00,0.00,VWS V14.00,2013-02-21 07:43:00,
2013-02-21 01:48:00,-0.1,-3.2,30.50,NNE,24,0.0,1.0,86,0.00,,---,0.00,0.00,VWS V14.00,2013-02-21 07:48:00,
2013-02-21 01:53:00,0.1,-2.8,30.50,NNE,24,0.0,1.0,87,0.00,,---,0.00,0.00,VWS V14.00,2013-02-21 07:53:00,
2013-02-21 01:58:00,0.3,-2.7,30.50,NNE,24,0.0,0.0,87,0.00,,---,0.00,0.00,VWS V14.00,2013-02-21 07:58:00,
2013-02-21 02:03:00,0.5,-2.5,30.50,NNE,24,0.0,1.0,87,0.00,,---,0.00,0.00,VWS V14.00,2013-02-21 08:03:00,
2013-02-21 02:09:00,0.7,-2.2,30.50,NNE,24,0.0,1.0,87,0.00,,---,0.00,0.00,VWS V14.00,2013-02-21 08:09:00,
2013-02-21 02:14:00,0.9,-2.0,30.50,NNE,24,0.0,1.0,87,0.00,,---,0.00,0.00,VWS V14.00,2013-02-21 08:14:00,
2013-02-21 02:19:00,1.1,-1.9,30.50,NNE,24,0.0,1.0,87,0.00,,---,0.00,0.00,VWS V14.00,2013-02-21 08:19:00,
2013-02-21 02:24:00,1.3,-1.7,30.50,NNE,24,0.0,1.0,87,0.00,,---,0.00,0.00,VWS V14.00,2013-02-21 08:24:00,
2013-02-21 02:29:00,1.5,-1.5,30.50,NNE,24,0.0,0.0,87,0.00,,---,0.00,0.00,VWS V14.00,2013-02-21 08:29:00,
2013-02-21 02:34:00,1.7,-1.3,30.50,NNE,24,0.0,1.0,87,0.00,,---,0.00,0.00,VWS V14.00,2013-02-21 08:34:00,
2013-02-21 02:39:00,1.8,-1.2,30.50,NNE,24,0.0,1.0,87,0.00,,---,0.00,0.00,VWS V14.00,2013-02-21 08:39:00,
2013-02-21 02:44:00,1.9,-1.3,30.51,NNE,24,0.0,1.0,86,0.00,,---,0.00,0.00,VWS V14.00,2013-02-21 08:44:00,
2013-02-21 02:49:00,1.8,-1.4,30.51,NNE,24,0.0,1.0,86,0.00,,---,0.00,0.00,VWS V14.00,2013-02-21 08:49:00,
2013-02-21 02:54:00,1.7,-1.5,30.51,NNE,24,0.0,1.0,86,0.00,,---,0.00,0.00,VWS V14.00,2013-02-21 08:54:00,
2013-02-21 03:00:00,1.6,-1.9,30.51,NNE,24,0.0,0.0,85,0.00,,---,0.00,0.00,VWS V14.00,2013-02-21 09:00:00,
2013-02-21 03:05:00,1.4,-2.0,30.51,NNE,24,0.0,0.0,85,0.00,,---,0.00,0.00,VWS V14.00,2013-02-21 09:05:00,
2013-02-21 03:10:00,1.3,-2.2,30.51,NNE,24,0.0,0.0,85,0.00,,---,0.00,0.00,VWS V14.00,2013-02-21 09:10:00,
2013-02-21 03:15:00,1.0,-2.5,30.51,NNE,24,0.0,0.0,85,0.00,,---,0.00,0.00,VWS V14.00,2013-02-21 09:15:00,
2013-02-21 03:20:00,0.9,-2.5,30.51,NNE,24,0.0,0.0,85,0.00,,---,0.00,0.00,VWS V14.00,2013-02-21 09:20:00,
2013-02-21 03:25:00,0.7,-2.7,30.50,NNE,24,0.0,0.0,85,0.00,,---,0.00,0.00,VWS V14.00,2013-02-21 09:25:00,
2013-02-21 03:30:00,0.5,-2.9,30.51,NNE,24,0.0,0.0,85,0.00,,---,0.00,0.00,VWS V14.00,2013-02-21 09:30:00,
2013-02-21 03:35:00,0.2,-3.2,30.50,NNE,24,0.0,0.0,85,0.00,,---,0.00,0.00,VWS V14.00,2013-02-21 09:35:00,
2013-02-21 03:40:00,0.1,-3.4,30.50,NNE,24,0.0,0.0,85,0.00,,---,0.00,0.00,VWS V14.00,2013-02-21 09:40:00,
2013-02-21 03:45:00,-0.2,-3.6,30.50,NNE,24,0.0,0.0,85,0.00,,---,0.00,0.00,VWS V14.00,2013-02-21 09:45:00,
2013-02-21 03:51:00,-0.3,-3.7,30.50,NNE,24,0.0,0.0,85,0.00,,---,0.00,0.00,VWS V14.00,2013-02-21 09:51:00,
2013-02-21 03:55:00,-0.5,-3.7,30.50,NNE,24,0.0,0.0,86,0.00,,---,0.00,0.00,VWS V14.00,2013-02-21 09:55:00,
2013-02-21 04:00:00,-0.5,-3.7,30.50,NNE,24,0.0,0.0,86,0.00,,---,0.00,0.00,VWS V14.00,2013-02-21 10:00:00,
2013-02-21 04:06:00,-0.5,-3.7,30.50,NNE,24,0.0,0.0,86,0.00,,---,0.00,0.00,VWS V14.00,2013-02-21 10:06:00,
2013-02-21 04:11:00,-0.6,-3.8,30.50,NNE,24,0.0,1.0,86,0.00,,---,0.00,0.00,VWS V14.00,2013-02-21 10:11:00,
2013-02-21 04:16:00,-0.6,-3.8,30.50,NNE,24,0.0,1.0,86,0.00,,---,0.00,0.00,VWS V14.00,2013-02-21 10:16:00,
2013-02-21 04:21:00,-0.6,-3.5,30.50,NNE,24,0.0,1.0,87,0.00,,---,0.00,0.00,VWS V14.00,2013-02-21 10:21:00,
2013-02-21 04:26:00,-0.4,-3.3,30.50,NNE,28,0.0,2.0,87,0.00,,---,0.00,0.00,VWS V14.00,2013-02-21 10:26:00,
2013-02-21 04:31:00,-0.3,-3.2,30.50,NNE,28,0.0,1.0,87,0.00,,---,0.00,0.00,VWS V14.00,2013-02-21 10:31:00,
2013-02-21 04:36:00,-0.3,-3.2,30.49,NNW,331,0.0,3.0,87,0.00,,---,0.00,0.00,VWS V14.00,2013-02-21 10:36:00,
2013-02-21 04:41:00,-0.2,-3.1,30.49,NNW,331,0.0,3.0,87,0.00,,---,0.00,0.00,VWS V14.00,2013-02-21 10:41:00,
2013-02-21 04:46:00,0.2,-2.5,30.49,NNW,331,0.0,3.0,88,0.00,,---,0.00,0.00,VWS V14.00,2013-02-21 10:46:00,
2013-02-21 04:51:00,0.9,-1.6,30.48,NNW,331,0.0,3.0,89,0.00,,---,0.00,0.00,VWS V14.00,2013-02-21 10:51:00,
2013-02-21 04:56:00,1.7,-0.8,30.47,NNW,331,0.0,3.0,89,0.00,,---,0.00,0.00,VWS V14.00,2013-02-21 10:56:00,
2013-02-21 05:01:00,2.8,0.5,30.47,NNW,332,1.0,3.0,90,0.00,,---,0.00,0.00,VWS V14.00,2013-02-21 11:01:00,
2013-02-21 05:07:00,3.3,0.6,30.46,NNW,333,0.0,3.0,88,0.00,,---,0.00,0.00,VWS V14.00,2013-02-21 11:07:00,
2013-02-21 05:12:00,4.2,1.4,30.46,NNW,333,0.0,3.0,88,0.00,,---,0.00,0.00,VWS V14.00,2013-02-21 11:12:00,
2013-02-21 05:17:00,4.8,1.8,30.46,NNW,333,1.0,3.0,87,0.00,,---,0.00,0.00,VWS V14.00,2013-02-21 11:17:00,
2013-02-21 05:22:00,4.9,1.1,30.45,NNW,333,1.0,3.0,84,0.00,,---,0.00,0.00,VWS V14.00,2013-02-21 11:22:00,
2013-02-21 05:27:00,5.1,1.3,30.44,North,11,1.0,3.0,84,0.00,,---,0.00,0.00,VWS V14.00,2013-02-21 11:27:00,
2013-02-21 05:32:00,5.4,1.6,30.43,North,9,0.0,2.0,84,0.00,,---,0.00,0.00,VWS V14.00,2013-02-21 11:32:00,
2013-02-21 05:37:00,5.7,1.7,30.43,North,5,1.0,2.0,83,0.00,,---,0.00,0.00,VWS V14.00,2013-02-21 11:37:00,
2013-02-21 05:42:00,5.9,1.6,30.41,North,355,2.0,3.0,82,0.00,,---,0.00,0.00,VWS V14.00,2013-02-21 11:42:00,
2013-02-21 05:47:00,5.9,1.6,30.40,North,5,0.0,3.0,82,0.00,,---,0.00,0.00,VWS V14.00,2013-02-21 11:47:00,
2013-02-21 05:52:00,6.0,1.7,30.40,NNE,26,4.0,5.0,82,0.00,,---,0.00,0.00,VWS V14.00,2013-02-21 11:52:00,
2013-02-21 05:57:00,6.4,1.8,30.39,North,9,1.0,5.0,81,0.00,,---,0.00,0.00,VWS V14.00,2013-02-21 11:57:00,
2013-02-21 06:02:00,6.5,1.9,30.39,North,360,2.0,10.0,81,0.00,,---,0.00,0.00,VWS V14.00,2013-02-21 12:02:00,
2013-02-21 06:07:00,6.8,2.2,30.38,NNE,30,0.0,10.0,81,0.00,,---,0.00,0.00,VWS V14.00,2013-02-21 12:07:00,
2013-02-21 06:12:00,6.9,2.0,30.40,NNE,23,2.0,10.0,80,0.00,,---,0.00,0.00,VWS V14.00,2013-02-21 12:12:00,
2013-02-21 06:17:00,7.1,2.2,30.42,NE,51,0.0,10.0,80,0.00,,---,0.00,0.00,VWS V14.00,2013-02-21 12:17:00,
2013-02-21 06:22:00,7.2,2.3,30.44,SSE,165,4.0,10.0,80,0.00,,---,0.00,0.00,VWS V14.00,2013-02-21 12:22:00,
2013-02-21 06:28:00,7.4,2.5,30.47,SSE,168,0.0,0.0,80,0.00,,---,0.00,0.00,VWS V14.00,2013-02-21 12:28:00,
2013-02-21 06:33:00,7.3,2.2,30.51,South,169,1.0,4.0,79,0.00,,---,0.00,0.00,VWS V14.00,2013-02-21 12:33:00,
2013-02-21 06:38:00,7.0,1.9,30.51,SE,140,0.0,6.0,79,0.00,,---,0.00,0.00,VWS V14.00,2013-02-21 12:38:00,
2013-02-21 06:43:00,6.6,1.5,30.51,SE,140,0.0,6.0,79,0.00,,---,0.00,0.00,VWS V14.00,2013-02-21 12:43:00,
2013-02-21 06:48:00,6.1,1.0,30.52,SE,140,0.0,6.0,79,0.00,,---,0.00,0.00,VWS V14.00,2013-02-21 12:48:00,
2013-02-21 06:53:00,5.7,0.9,30.52,SE,140,0.0,6.0,80,0.00,,---,0.00,0.00,VWS V14.00,2013-02-21 12:53:00,
2013-02-21 06:58:00,5.4,0.6,30.52,SE,140,0.0,0.0,80,0.00,,---,0.00,5.00,VWS V14.00,2013-02-21 12:58:00,
2013-02-21 07:03:00,5.0,0.5,30.52,SE,140,0.0,0.0,81,0.00,,---,0.00,5.00,VWS V14.00,2013-02-21 13:03:00,
2013-02-21 07:08:00,4.7,0.2,30.51,SE,140,0.0,0.0,81,0.00,,---,0.00,5.00,VWS V14.00,2013-02-21 13:08:00,
2013-02-21 07:13:00,4.7,0.2,30.51,SE,140,0.0,0.0,81,0.00,,---,0.00,5.00,VWS V14.00,2013-02-21 13:13:00,
2013-02-21 07:18:00,3.8,-0.5,30.51,SE,140,0.0,0.0,82,0.00,,---,0.00,12.00,VWS V14.00,2013-02-21 13:18:00,
2013-02-21 07:23:00,3.6,-0.6,30.51,SE,140,0.0,0.0,82,0.00,,---,0.00,18.00,VWS V14.00,2013-02-21 13:23:00,
2013-02-21 07:29:00,3.4,-0.6,30.51,SE,140,0.0,0.0,83,0.00,,---,0.00,23.00,VWS V14.00,2013-02-21 13:29:00,
2013-02-21 07:34:00,3.1,-1.1,30.51,SE,140,0.0,0.0,82,0.00,,---,0.00,26.00,VWS V14.00,2013-02-21 13:34:00,
2013-02-21 07:39:00,2.8,1.0,30.50,SE,140,0.0,1.0,92,0.00,,---,0.00,33.00,VWS V14.00,2013-02-21 13:39:00,
2013-02-21 07:44:00,2.6,-1.4,30.50,SE,140,0.0,1.0,83,0.00,,---,0.00,42.00,VWS V14.00,2013-02-21 13:44:00,
2013-02-21 07:49:00,2.7,-1.0,30.51,SE,140,0.0,1.0,84,0.00,,---,0.00,47.00,VWS V14.00,2013-02-21 13:49:00,
2013-02-21 07:54:00,2.9,-0.6,30.50,SE,136,0.0,1.0,85,0.00,,---,0.00,54.00,VWS V14.00,2013-02-21 13:54:00,
2013-02-21 07:59:00,3.1,-0.4,30.50,SE,136,0.0,1.0,85,0.00,,---,0.00,60.00,VWS V14.00,2013-02-21 13:59:00,
2013-02-21 08:04:00,3.8,0.6,30.49,NNE,26,1.0,3.0,86,0.00,,---,0.00,65.00,VWS V14.00,2013-02-21 14:04:00,
2013-02-21 08:09:00,4.9,1.6,30.48,North,5,2.0,3.0,86,0.00,,---,0.00,74.00,VWS V14.00,2013-02-21 14:09:00,
2013-02-21 08:14:00,5.7,2.2,30.48,North,5,1.0,3.0,85,0.00,,---,0.00,81.00,VWS V14.00,2013-02-21 14:14:00,
2013-02-21 08:19:00,6.4,2.6,30.48,ENE,61,0.0,3.0,84,0.00,,---,0.00,88.00,VWS V14.00,2013-02-21 14:19:00,
2013-02-21 08:24:00,7.1,2.8,30.48,NNE,25,0.0,4.0,82,0.00,,---,0.00,90.00,VWS V14.00,2013-02-21 14:24:00,
2013-02-21 08:29:00,7.7,3.1,30.47,NNE,29,4.0,5.0,81,0.00,,---,0.00,93.00,VWS V14.00,2013-02-21 14:29:00,
2013-02-21 08:34:00,8.2,3.3,30.47,NE,45,0.0,5.0,80,0.00,,---,0.00,100.00,VWS V14.00,2013-02-21 14:34:00,
2013-02-21 08:39:00,8.5,3.3,30.47,NE,50,0.0,5.0,79,0.00,,---,0.00,104.00,VWS V14.00,2013-02-21 14:39:00,
2013-02-21 08:45:00,9.0,3.5,30.47,NNE,24,3.0,5.0,78,0.00,,---,0.00,109.00,VWS V14.00,2013-02-21 14:45:00,
2013-02-21 08:50:00,9.3,3.6,30.47,NNE,25,1.0,7.0,77,0.00,,---,0.00,111.00,VWS V14.00,2013-02-21 14:50:00,
2013-02-21 08:55:00,9.6,3.8,30.47,ENE,57,0.0,7.0,77,0.00,,---,0.00,118.00,VWS V14.00,2013-02-21 14:55:00,
2013-02-21 09:00:00,9.9,3.9,30.47,East,88,0.0,2.0,76,0.00,,---,0.00,135.00,VWS V14.00,2013-02-21 15:00:00,
2013-02-21 09:05:00,10.2,3.9,30.47,NE,49,1.0,5.0,75,0.00,,---,0.00,146.00,VWS V14.00,2013-02-21 15:05:00,
2013-02-21 09:10:00,10.5,4.2,30.47,SE,136,2.0,5.0,75,0.00,,---,0.00,162.00,VWS V14.00,2013-02-21 15:10:00,
2013-02-21 09:15:00,10.8,4.2,30.47,NNE,24,3.0,5.0,74,0.00,,---,0.00,158.00,VWS V14.00,2013-02-21 15:15:00,
2013-02-21 09:20:00,11.2,4.5,30.46,North,10,3.0,6.0,74,0.00,,---,0.00,186.00,VWS V14.00,2013-02-21 15:20:00,
2013-02-21 09:25:00,11.4,4.4,30.46,NE,38,2.0,6.0,73,0.00,,---,0.00,172.00,VWS V14.00,2013-02-21 15:25:00,
2013-02-21 09:30:00,11.7,4.7,30.45,NE,38,1.0,4.0,73,0.00,,---,0.00,220.00,VWS V14.00,2013-02-21 15:30:00,
2013-02-21 09:35:00,11.9,4.9,30.44,NNE,33,2.0,6.0,73,0.00,,---,0.00,192.00,VWS V14.00,2013-02-21 15:35:00,
2013-02-21 09:40:00,12.3,5.0,30.44,ENE,75,0.0,7.0,72,0.00,,---,0.00,185.00,VWS V14.00,2013-02-21 15:40:00,
2013-02-21 09:45:00,12.6,5.3,30.44,NE,38,0.0,7.0,72,0.00,,---,0.00,185.00,VWS V14.00,2013-02-21 15:45:00,
2013-02-21 09:50:00,12.9,5.3,30.45,East,84,3.0,7.0,71,0.00,,---,0.00,167.00,VWS V14.00,2013-02-21 15:50:00,
2013-02-21 09:55:00,13.1,5.5,30.45,NNE,17,2.0,7.0,71,0.00,,---,0.00,174.00,VWS V14.00,2013-02-21 15:55:00,
2013-02-21 10:00:00,13.2,5.3,30.45,ENE,57,0.0,6.0,70,0.00,,---,0.00,183.00,VWS V14.00,2013-02-21 16:00:00,
2013-02-21 10:05:00,13.4,5.8,30.45,NE,34,3.0,6.0,71,0.00,,---,0.00,185.00,VWS V14.00,2013-02-21 16:05:00,
2013-02-21 10:10:00,13.6,5.7,30.45,ENE,62,0.0,7.0,70,0.00,,---,0.00,213.00,VWS V14.00,2013-02-21 16:10:00,
2013-02-21 10:15:00,13.6,5.7,30.46,East,81,1.0,7.0,70,0.00,,---,0.00,220.00,VWS V14.00,2013-02-21 16:15:00,
2013-02-21 10:20:00,13.9,5.9,30.46,NE,45,2.0,7.0,70,0.00,,---,0.00,209.00,VWS V14.00,2013-02-21 16:20:00,
2013-02-21 10:25:00,14.1,6.1,30.46,ENE,57,3.0,7.0,70,0.00,,---,0.00,250.00,VWS V14.00,2013-02-21 16:25:00,
2013-02-21 10:31:00,14.4,6.4,30.46,NE,52,0.0,5.0,70,0.00,,---,0.00,223.00,VWS V14.00,2013-02-21 16:31:00,
2013-02-21 10:36:00,14.4,6.1,30.46,ENE,64,1.0,6.0,69,0.00,,---,0.00,234.00,VWS V14.00,2013-02-21 16:36:00,
2013-02-21 10:41:00,14.5,6.2,30.46,ENE,63,0.0,6.0,69,0.00,,---,0.00,262.00,VWS V14.00,2013-02-21 16:41:00,
2013-02-21 10:46:00,14.9,6.6,30.46,NE,38,0.0,6.0,69,0.00,,---,0.00,258.00,VWS V14.00,2013-02-21 16:46:00,
2013-02-21 10:51:00,15.1,6.5,30.46,NE,43,0.0,6.0,68,0.00,,---,0.00,248.00,VWS V14.00,2013-02-21 16:51:00,
2013-02-21 10:56:00,15.4,7.1,30.46,NE,34,2.0,6.0,69,0.00,,---,0.00,283.00,VWS V14.00,2013-02-21 16:56:00,
2013-02-21 11:01:00,15.7,6.7,30.45,NE,43,0.0,2.0,67,0.00,,---,0.00,308.00,VWS V14.00,2013-02-21 17:01:00,
2013-02-21 11:06:00,16.0,6.7,30.46,East,101,1.0,3.0,66,0.00,,---,0.00,334.00,VWS V14.00,2013-02-21 17:06:00,
2013-02-21 11:11:00,16.1,6.8,30.46,ESE,110,0.0,9.0,66,0.00,,---,0.00,334.00,VWS V14.00,2013-02-21 17:11:00,
2013-02-21 11:16:00,16.3,6.9,30.45,NNE,14,5.0,9.0,66,0.00,,---,0.00,371.00,VWS V14.00,2013-02-21 17:16:00,
2013-02-21 11:21:00,16.2,6.8,30.45,ESE,104,2.0,9.0,66,0.00,,---,0.00,385.00,VWS V14.00,2013-02-21 17:21:00,
2013-02-21 11:26:00,16.6,9.2,30.45,NNE,32,2.0,9.0,72,0.00,,---,0.00,415.00,VWS V14.00,2013-02-21 17:26:00,
2013-02-21 11:31:00,17.1,7.4,30.45,NNE,17,3.0,4.0,65,0.00,,---,0.00,404.00,VWS V14.00,2013-02-21 17:31:00,
2013-02-21 11:36:00,17.5,7.8,30.45,NNE,15,2.0,4.0,65,0.00,,---,0.00,355.00,VWS V14.00,2013-02-21 17:36:00,
2013-02-21 11:41:00,17.5,7.4,30.44,NNE,24,5.0,7.0,64,0.00,,---,0.00,376.00,VWS V14.00,2013-02-21 17:41:00,
2013-02-21 11:47:00,17.5,7.4,30.44,NNE,32,6.0,12.0,64,0.00,,---,0.00,388.00,VWS V14.00,2013-02-21 17:47:00,
2013-02-21 11:52:00,17.5,7.4,30.44,NNE,30,2.0,12.0,64,0.00,,---,0.00,387.00,VWS V14.00,2013-02-21 17:52:00,
2013-02-21 11:57:00,17.5,7.4,30.44,NNE,17,4.0,12.0,64,0.00,,---,0.00,380.00,VWS V14.00,2013-02-21 17:57:00,
2013-02-21 12:02:00,17.5,7.8,30.43,NNE,28,2.0,5.0,65,0.00,,---,0.00,478.00,VWS V14.00,2013-02-21 18:02:00,
2013-02-21 12:07:00,17.7,7.3,30.43,NNE,24,4.0,7.0,63,0.00,,---,0.00,555.00,VWS V14.00,2013-02-21 18:07:00,
2013-02-21 12:12:00,17.7,7.6,30.43,North,355,3.0,11.0,64,0.00,,---,0.00,570.00,VWS V14.00,2013-02-21 18:12:00,
2013-02-21 12:17:00,18.0,7.5,30.42,NNE,22,2.0,11.0,63,0.00,,---,0.00,508.00,VWS V14.00,2013-02-21 18:17:00,
2013-02-21 12:22:00,17.9,7.4,30.41,NNE,23,5.0,11.0,63,0.00,,---,0.00,439.00,VWS V14.00,2013-02-21 18:22:00,
2013-02-21 12:27:00,18.1,8.0,30.41,North,351,2.0,11.0,64,0.00,,---,0.00,443.00,VWS V14.00,2013-02-21 18:27:00,
2013-02-21 12:32:00,18.5,8.0,30.40,NNE,19,2.0,6.0,63,0.00,,---,0.00,446.00,VWS V14.00,2013-02-21 18:32:00,
2013-02-21 12:37:00,18.8,8.3,30.40,NNE,27,5.0,6.0,63,0.00,,---,0.00,413.00,VWS V14.00,2013-02-21 18:37:00,
2013-02-21 12:42:00,18.9,8.1,30.39,ENE,57,1.0,8.0,62,0.00,,---,0.00,378.00,VWS V14.00,2013-02-21 18:42:00,
2013-02-21 12:47:00,18.8,8.3,30.39,NNE,27,4.0,8.0,63,0.00,,---,0.00,371.00,VWS V14.00,2013-02-21 18:47:00,
2013-02-21 12:52:00,18.9,8.1,30.39,ENE,63,6.0,10.0,62,0.00,,---,0.00,366.00,VWS V14.00,2013-02-21 18:52:00,
2013-02-21 12:57:00,19.1,8.2,30.38,ENE,74,0.0,10.0,62,0.00,,---,0.00,378.00,VWS V14.00,2013-02-21 18:57:00,
2013-02-21 13:02:00,19.3,8.4,30.38,ENE,59,0.0,7.0,62,0.00,,---,0.00,401.00,VWS V14.00,2013-02-21 19:02:00,
2013-02-21 13:08:00,19.7,8.8,30.38,SE,124,0.0,9.0,62,0.00,,---,0.00,410.00,VWS V14.00,2013-02-21 19:08:00,
2013-02-21 13:13:00,20.1,8.8,30.38,NE,34,2.0,9.0,61,0.00,,---,0.00,450.00,VWS V14.00,2013-02-21 19:13:00,
2013-02-21 13:18:00,20.5,8.8,30.38,NNE,32,0.0,9.0,60,0.00,,---,0.00,468.00,VWS V14.00,2013-02-21 19:18:00,
2013-02-21 13:23:00,20.7,9.0,30.38,NNE,32,5.0,9.0,60,0.00,,---,0.00,464.00,VWS V14.00,2013-02-21 19:23:00,
2013-02-21 13:28:00,20.9,9.2,30.38,NNE,18,2.0,4.0,60,0.00,,---,0.00,446.00,VWS V14.00,2013-02-21 19:28:00,
2013-02-21 13:33:00,21.2,9.5,30.38,East,94,2.0,5.0,60,0.00,,---,0.00,381.00,VWS V14.00,2013-02-21 19:33:00,
2013-02-21 13:38:00,21.5,9.4,30.38,ENE,61,2.0,5.0,59,0.00,,---,0.00,359.00,VWS V14.00,2013-02-21 19:38:00,
2013-02-21 13:43:00,21.8,9.7,30.37,ENE,67,3.0,5.0,59,0.00,,---,0.00,373.00,VWS V14.00,2013-02-21 19:43:00,
2013-02-21 13:48:00,22.0,9.5,30.37,SE,136,1.0,6.0,58,0.00,,---,0.00,369.00,VWS V14.00,2013-02-21 19:48:00,
2013-02-21 13:53:00,22.1,9.6,30.36,ENE,57,1.0,7.0,58,0.00,,---,0.00,316.00,VWS V14.00,2013-02-21 19:53:00,
2013-02-21 13:58:00,22.1,9.6,30.36,NE,36,1.0,2.0,58,0.00,,---,0.00,292.00,VWS V14.00,2013-02-21 19:58:00,
2013-02-21 14:03:00,22.0,9.9,30.36,North,11,4.0,7.0,59,0.00,,---,0.00,297.00,VWS V14.00,2013-02-21 20:03:00,
2013-02-21 14:08:00,21.9,9.8,30.36,East,99,4.0,7.0,59,0.00,,---,0.00,262.00,VWS V14.00,2013-02-21 20:08:00,
2013-02-21 14:13:00,21.7,9.2,30.35,NNE,22,1.0,9.0,58,0.00,,---,0.00,260.00,VWS V14.00,2013-02-21 20:13:00,
2013-02-21 14:18:00,21.7,10.0,30.35,NNE,31,0.0,9.0,60,0.00,,---,0.00,260.00,VWS V14.00,2013-02-21 20:18:00,
2013-02-21 14:23:00,21.6,9.1,30.35,North,5,4.0,9.0,58,0.00,,---,0.00,279.00,VWS V14.00,2013-02-21 20:23:00,
2013-02-21 14:29:00,21.5,9.4,30.34,ENE,61,1.0,4.0,59,0.00,,---,0.00,285.00,VWS V14.00,2013-02-21 20:29:00,
2013-02-21 14:34:00,21.6,9.5,30.34,North,5,3.0,6.0,59,0.00,,---,0.00,279.00,VWS V14.00,2013-02-21 20:34:00,
2013-02-21 14:39:00,21.8,9.7,30.34,East,100,1.0,8.0,59,0.00,,---,0.00,274.00,VWS V14.00,2013-02-21 20:39:00,
2013-02-21 14:44:00,21.9,9.8,30.34,NE,55,3.0,8.0,59,0.00,,---,0.00,278.00,VWS V14.00,2013-02-21 20:44:00,
2013-02-21 14:49:00,21.7,9.2,30.33,NNE,24,2.0,12.0,58,0.00,,---,0.00,250.00,VWS V14.00,2013-02-21 20:49:00,
2013-02-21 14:54:00,21.5,9.4,30.33,NNE,22,6.0,12.0,59,0.00,,---,0.00,264.00,VWS V14.00,2013-02-21 20:54:00,
2013-02-21 14:59:00,21.6,9.9,30.32,NNE,17,0.0,4.0,60,0.00,,---,0.00,269.00,VWS V14.00,2013-02-21 20:59:00,
2013-02-21 15:04:00,21.8,9.7,30.32,North,10,3.0,9.0,59,0.00,,---,0.00,239.00,VWS V14.00,2013-02-21 21:04:00,
2013-02-21 15:09:00,21.9,9.8,30.31,NNE,15,4.0,16.0,59,0.00,,---,0.00,216.00,VWS V14.00,2013-02-21 21:09:00,
2013-02-21 15:14:00,22.0,9.9,30.32,NNE,24,5.0,16.0,59,0.00,,---,0.00,190.00,VWS V14.00,2013-02-21 21:14:00,
2013-02-21 15:19:00,22.1,10.0,30.32,NE,37,4.0,16.0,59,0.00,,---,0.00,188.00,VWS V14.00,2013-02-21 21:19:00,
2013-02-21 15:24:00,22.2,10.1,30.31,NNE,23,0.0,16.0,59,0.00,,---,0.00,199.00,VWS V14.00,2013-02-21 21:24:00,
2013-02-21 15:29:00,22.2,10.4,30.31,North,5,3.0,6.0,60,0.00,,---,0.00,188.00,VWS V14.00,2013-02-21 21:29:00,
2013-02-21 15:34:00,22.1,10.4,30.31,NNE,22,9.0,11.0,60,0.00,,---,0.00,181.00,VWS V14.00,2013-02-21 21:34:00,
2013-02-21 15:39:00,22.0,10.2,30.31,NNW,338,6.0,11.0,60,0.00,,---,0.00,162.00,VWS V14.00,2013-02-21 21:39:00,
2013-02-21 15:44:00,21.9,10.2,30.30,NNE,22,3.0,11.0,60,0.00,,---,0.00,149.00,VWS V14.00,2013-02-21 21:44:00,
2013-02-21 15:49:00,21.8,10.4,30.30,North,9,5.0,11.0,61,0.00,,---,0.00,141.00,VWS V14.00,2013-02-21 21:49:00,
2013-02-21 15:54:00,21.8,10.4,30.30,NNE,16,8.0,12.0,61,0.00,,---,0.00,135.00,VWS V14.00,2013-02-21 21:54:00,
2013-02-21 16:00:00,21.7,10.7,30.30,ENE,65,3.0,6.0,62,0.00,,---,0.00,127.00,VWS V14.00,2013-02-21 22:00:00,
2013-02-21 16:05:00,21.7,10.7,30.30,East,86,2.0,14.0,62,0.00,,---,0.00,116.00,VWS V14.00,2013-02-21 22:05:00,
2013-02-21 16:10:00,21.6,10.6,30.30,NE,35,1.0,14.0,62,0.00,,---,0.00,107.00,VWS V14.00,2013-02-21 22:10:00,
2013-02-21 16:15:00,21.5,10.9,30.30,NE,34,1.0,14.0,63,0.00,,---,0.00,98.00,VWS V14.00,2013-02-21 22:15:00,
2013-02-21 16:20:00,21.5,10.9,30.30,NE,53,0.0,14.0,63,0.00,,---,0.00,97.00,VWS V14.00,2013-02-21 22:20:00,
2013-02-21 16:25:00,21.6,11.0,30.30,NNE,20,2.0,14.0,63,0.00,,---,0.00,90.00,VWS V14.00,2013-02-21 22:25:00,
2013-02-21 16:30:00,21.6,11.0,30.30,East,88,0.0,7.0,63,0.00,,---,0.00,81.00,VWS V14.00,2013-02-21 22:30:00,
2013-02-21 16:35:00,21.5,11.2,30.30,NE,37,2.0,7.0,64,0.00,,---,0.00,77.00,VWS V14.00,2013-02-21 22:35:00,
2013-02-21 16:40:00,21.5,11.2,30.30,North,360,2.0,7.0,64,0.00,,---,0.00,70.00,VWS V14.00,2013-02-21 22:40:00,
2013-02-21 16:45:00,21.5,11.2,30.29,NNE,32,3.0,11.0,64,0.00,,---,0.00,62.00,VWS V14.00,2013-02-21 22:45:00,
2013-02-21 16:50:00,21.4,10.8,30.29,NNE,15,3.0,11.0,63,0.00,,---,0.00,54.00,VWS V14.00,2013-02-21 22:50:00,
2013-02-21 16:55:00,21.3,11.0,30.28,NNW,336,3.0,11.0,64,0.00,,---,0.00,53.00,VWS V14.00,2013-02-21 22:55:00,
2013-02-21 17:01:00,21.2,10.9,30.28,NE,38,4.0,6.0,64,0.00,,---,0.00,47.00,VWS V14.00,2013-02-21 23:01:00,
2013-02-21 17:06:00,21.2,10.9,30.28,NNE,32,1.0,6.0,64,0.00,,---,0.00,40.00,VWS V14.00,2013-02-21 23:06:00,
2013-02-21 17:11:00,21.1,10.8,30.28,North,9,5.0,6.0,64,0.00,,---,0.00,35.00,VWS V14.00,2013-02-21 23:11:00,
2013-02-21 17:16:00,21.1,10.8,30.28,NNE,22,4.0,7.0,64,0.00,,---,0.00,30.00,VWS V14.00,2013-02-21 23:16:00,
2013-02-21 17:21:00,21.1,10.8,30.28,NNW,347,3.0,11.0,64,0.00,,---,0.00,21.00,VWS V14.00,2013-02-21 23:21:00,
2013-02-21 17:26:00,21.0,10.8,30.28,NNE,19,1.0,11.0,64,0.00,,---,0.00,18.00,VWS V14.00,2013-02-21 23:26:00,
2013-02-21 17:31:00,20.9,10.6,30.28,North,360,4.0,6.0,64,0.00,,---,0.00,14.00,VWS V14.00,2013-02-21 23:31:00,
2013-02-21 17:36:00,20.9,10.6,30.28,NE,37,8.0,10.0,64,0.00,,---,0.00,11.00,VWS V14.00,2013-02-21 23:36:00,
2013-02-21 17:41:00,20.8,10.9,30.28,North,11,2.0,10.0,65,0.00,,---,0.00,7.00,VWS V14.00,2013-02-21 23:41:00,
2013-02-21 17:46:00,20.8,10.9,30.28,NNE,24,0.0,10.0,65,0.00,,---,0.00,5.00,VWS V14.00,2013-02-21 23:46:00,
2013-02-21 17:51:00,20.7,10.5,30.27,ENE,71,0.0,10.0,64,0.00,,---,0.00,0.00,VWS V14.00,2013-02-21 23:51:00,
2013-02-21 17:56:00,20.7,10.5,30.27,NNE,27,3.0,12.0,64,0.00,,---,0.00,0.00,VWS V14.00,2013-02-21 23:56:00,
2013-02-21 18:01:00,20.6,10.4,30.27,North,360,3.0,7.0,64,0.00,,---,0.00,0.00,VWS V14.00,2013-02-22 00:01:00,
2013-02-21 18:06:00,20.5,10.6,30.27,North,5,4.0,7.0,65,0.00,,---,0.00,0.00,VWS V14.00,2013-02-22 00:06:00,
2013-02-21 18:12:00,20.4,10.5,30.27,NNE,30,3.0,9.0,65,0.00,,---,0.00,0.00,VWS V14.00,2013-02-22 00:12:00,
2013-02-21 18:17:00,20.4,10.5,30.26,NNE,26,5.0,11.0,65,0.00,,---,0.00,0.00,VWS V14.00,2013-02-22 00:17:00,
2013-02-21 18:22:00,20.4,10.5,30.26,North,5,2.0,11.0,65,0.00,,---,0.00,0.00,VWS V14.00,2013-02-22 00:22:00,
2013-02-21 18:27:00,20.4,10.5,30.26,North,360,3.0,11.0,65,0.00,,---,0.00,0.00,VWS V14.00,2013-02-22 00:27:00,
2013-02-21 18:32:00,20.4,10.5,30.26,ENE,70,0.0,7.0,65,0.00,,---,0.00,0.00,VWS V14.00,2013-02-22 00:32:00,
2013-02-21 18:37:00,20.3,10.8,30.26,NE,53,2.0,7.0,66,0.00,,---,0.00,0.00,VWS V14.00,2013-02-22 00:37:00,
2013-02-21 18:42:00,20.3,10.8,30.26,North,5,0.0,7.0,66,0.00,,---,0.00,0.00,VWS V14.00,2013-02-22 00:42:00,
2013-02-21 18:47:00,20.4,10.9,30.26,North,355,1.0,7.0,66,0.00,,---,0.00,0.00,VWS V14.00,2013-02-22 00:47:00,
2013-02-21 18:52:00,20.3,10.8,30.24,NNE,22,0.0,7.0,66,0.00,,---,0.00,0.00,VWS V14.00,2013-02-22 00:52:00,
2013-02-21 18:58:00,20.2,11.0,30.24,North,11,0.0,0.0,67,0.00,,---,0.00,0.00,VWS V14.00,2013-02-22 00:58:00,
2013-02-21 19:03:00,20.2,10.7,30.24,NNE,16,1.0,9.0,66,0.00,,---,0.00,0.00,VWS V14.00,2013-02-22 01:03:00,
2013-02-21 19:08:00,20.3,11.1,30.24,NNE,17,3.0,9.0,67,0.00,,---,0.00,0.00,VWS V14.00,2013-02-22 01:08:00,
2013-02-21 19:13:00,20.3,11.1,30.24,NNE,13,0.0,9.0,67,0.00,,---,0.00,0.00,VWS V14.00,2013-02-22 01:13:00,
2013-02-21 19:18:00,20.3,10.8,30.24,NNE,12,3.0,9.0,66,0.00,,---,0.00,0.00,VWS V14.00,2013-02-22 01:18:00,
2013-02-21 19:23:00,20.4,11.2,30.23,NNE,25,0.0,9.0,67,0.00,,---,0.00,0.00,VWS V14.00,2013-02-22 01:23:00,
2013-02-21 19:28:00,20.4,11.2,30.24,NNE,14,3.0,3.0,67,0.00,,---,0.00,0.00,VWS V14.00,2013-02-22 01:28:00,
2013-02-21 19:33:00,20.5,11.3,30.23,NNE,15,4.0,6.0,67,0.00,,---,0.00,0.00,VWS V14.00,2013-02-22 01:33:00,
2013-02-21 19:38:00,20.5,11.3,30.23,East,99,0.0,6.0,67,0.00,,---,0.00,0.00,VWS V14.00,2013-02-22 01:38:00,
2013-02-21 19:43:00,20.6,11.4,30.24,NNE,19,1.0,6.0,67,0.00,,---,0.00,0.00,VWS V14.00,2013-02-22 01:43:00,
2013-02-21 19:48:00,20.6,11.4,30.24,NNE,26,0.0,6.0,67,0.00,,---,0.00,0.00,VWS V14.00,2013-02-22 01:48:00,
2013-02-21 19:53:00,20.6,11.4,30.24,NNE,28,2.0,6.0,67,0.00,,---,0.00,0.00,VWS V14.00,2013-02-22 01:53:00,
2013-02-21 19:59:00,20.7,11.5,30.24,NE,51,0.0,1.0,67,0.00,,---,0.00,0.00,VWS V14.00,2013-02-22 01:59:00,
2013-02-21 20:04:00,20.7,11.5,30.24,NE,51,0.0,2.0,67,0.00,,---,0.00,0.00,VWS V14.00,2013-02-22 02:04:00,
2013-02-21 20:09:00,20.6,11.4,30.24,NE,51,0.0,2.0,67,0.00,,---,0.00,0.00,VWS V14.00,2013-02-22 02:09:00,
2013-02-21 20:14:00,20.6,11.4,30.23,NNE,27,0.0,2.0,67,0.00,,---,0.00,0.00,VWS V14.00,2013-02-22 02:14:00,
2013-02-21 20:19:00,20.6,11.4,30.24,NNE,26,0.0,2.0,67,0.00,,---,0.00,0.00,VWS V14.00,2013-02-22 02:19:00,
2013-02-21 20:24:00,20.6,11.4,30.24,NNE,28,0.0,2.0,67,0.00,,---,0.00,0.00,VWS V14.00,2013-02-22 02:24:00,
2013-02-21 20:29:00,20.6,11.7,30.24,NNE,28,0.0,0.0,68,0.00,,---,0.00,0.00,VWS V14.00,2013-02-22 02:29:00,
2013-02-21 20:34:00,20.6,11.7,30.23,NNE,28,0.0,1.0,68,0.00,,---,0.00,0.00,VWS V14.00,2013-02-22 02:34:00,
2013-02-21 20:39:00,20.4,11.5,30.23,NNE,29,0.0,1.0,68,0.00,,---,0.00,0.00,VWS V14.00,2013-02-22 02:39:00,
2013-02-21 20:44:00,20.4,11.5,30.23,NNE,32,0.0,2.0,68,0.00,,---,0.00,0.00,VWS V14.00,2013-02-22 02:44:00,
2013-02-21 20:50:00,20.4,11.5,30.23,NNE,32,0.0,2.0,68,0.00,,---,0.00,0.00,VWS V14.00,2013-02-22 02:50:00,
2013-02-21 20:55:00,20.3,11.4,30.23,NNE,32,0.0,2.0,68,0.00,,---,0.00,0.00,VWS V14.00,2013-02-22 02:55:00,
2013-02-21 21:00:00,20.3,11.4,30.22,NNE,30,0.0,1.0,68,0.00,,---,0.00,0.00,VWS V14.00,2013-02-22 03:00:00,
2013-02-21 21:05:00,20.4,11.9,30.22,NE,36,1.0,2.0,69,0.00,,---,0.00,0.00,VWS V14.00,2013-02-22 03:05:00,
2013-02-21 21:10:00,20.4,11.5,30.22,NNE,16,0.0,2.0,68,0.00,,---,0.00,0.00,VWS V14.00,2013-02-22 03:10:00,
2013-02-21 21:15:00,20.4,11.5,30.22,NNE,16,1.0,2.0,68,0.00,,---,0.00,0.00,VWS V14.00,2013-02-22 03:15:00,
2013-02-21 21:20:00,20.5,11.6,30.22,NNE,15,0.0,3.0,68,0.00,,---,0.00,0.00,VWS V14.00,2013-02-22 03:20:00,
2013-02-21 21:25:00,20.6,11.7,30.21,NE,44,0.0,4.0,68,0.00,,---,0.00,0.00,VWS V14.00,2013-02-22 03:25:00,
2013-02-21 21:30:00,20.6,11.7,30.21,NNE,32,0.0,1.0,68,0.00,,---,0.00,0.00,VWS V14.00,2013-02-22 03:30:00,
2013-02-21 21:35:00,20.7,11.8,30.21,NE,34,0.0,4.0,68,0.00,,---,0.00,0.00,VWS V14.00,2013-02-22 03:35:00,
2013-02-21 21:40:00,20.8,11.9,30.21,NE,36,3.0,4.0,68,0.00,,---,0.00,0.00,VWS V14.00,2013-02-22 03:40:00,
2013-02-21 21:45:00,20.8,11.9,30.21,NE,44,0.0,4.0,68,0.00,,---,0.00,0.00,VWS V14.00,2013-02-22 03:45:00,
2013-02-21 21:50:00,20.8,11.9,30.20,NNE,33,1.0,4.0,68,0.00,,---,0.00,0.00,VWS V14.00,2013-02-22 03:50:00,
2013-02-21 21:56:00,20.8,11.9,30.20,NNE,24,2.0,5.0,68,0.00,,---,0.00,0.00,VWS V14.00,2013-02-22 03:56:00,
2013-02-21 22:01:00,20.9,12.0,30.19,North,5,1.0,5.0,68,0.00,,---,0.00,0.00,VWS V14.00,2013-02-22 04:01:00,
2013-02-21 22:06:00,20.9,12.0,30.19,NNE,26,1.0,5.0,68,0.00,,---,0.00,0.00,VWS V14.00,2013-02-22 04:06:00,
2013-02-21 22:11:00,20.9,12.0,30.18,NNE,32,1.0,5.0,68,0.00,,---,0.00,0.00,VWS V14.00,2013-02-22 04:11:00,
2013-02-21 22:16:00,20.9,12.0,30.18,NNE,27,2.0,5.0,68,0.00,,---,0.00,0.00,VWS V14.00,2013-02-22 04:16:00,
2013-02-21 22:21:00,20.9,12.0,30.18,North,360,2.0,7.0,68,0.00,,---,0.00,0.00,VWS V14.00,2013-02-22 04:21:00,
2013-02-21 22:26:00,20.9,12.0,30.17,North,9,2.0,7.0,68,0.00,,---,0.00,0.00,VWS V14.00,2013-02-22 04:26:00,
2013-02-21 22:31:00,21.0,12.1,30.17,ENE,62,2.0,5.0,68,0.00,,---,0.00,0.00,VWS V14.00,2013-02-22 04:31:00,
2013-02-21 22:36:00,21.0,12.1,30.17,NE,53,0.0,5.0,68,0.00,,---,0.00,0.00,VWS V14.00,2013-02-22 04:36:00,
2013-02-21 22:41:00,20.9,12.0,30.17,North,360,1.0,5.0,68,0.00,,---,0.00,0.00,VWS V14.00,2013-02-22 04:41:00,
2013-02-21 22:46:00,20.9,12.4,30.17,North,5,3.0,5.0,69,0.00,,---,0.00,0.00,VWS V14.00,2013-02-22 04:46:00,
2013-02-21 22:51:00,20.9,12.4,30.17,NNW,344,5.0,8.0,69,0.00,,---,0.00,0.00,VWS V14.00,2013-02-22 04:51:00,
2013-02-21 22:56:00,20.8,12.2,30.17,NNE,22,1.0,8.0,69,0.00,,---,0.00,0.00,VWS V14.00,2013-02-22 04:56:00,
2013-02-21 23:00:00,20.8,12.6,30.17,NNE,24,2.0,2.0,70,0.00,,---,0.00,0.00,VWS V14.00,2013-02-22 05:00:00,
2013-02-21 23:01:00,20.9,12.4,30.17,NE,54,0.0,3.0,69,0.00,,---,0.00,0.00,VWS V14.00,2013-02-22 05:01:00,
2013-02-21 23:06:00,20.9,12.4,30.17,NNE,19,0.0,5.0,69,0.00,,---,0.00,0.00,VWS V14.00,2013-02-22 05:06:00,
2013-02-21 23:11:00,20.9,12.4,30.17,SE,145,1.0,5.0,69,0.00,,---,0.00,0.00,VWS V14.00,2013-02-22 05:11:00,
2013-02-21 23:16:00,20.9,12.4,30.16,NNE,26,1.0,5.0,69,0.00,,---,0.00,0.00,VWS V14.00,2013-02-22 05:16:00,
2013-02-21 23:21:00,21.0,12.4,30.16,NNE,12,2.0,5.0,69,0.00,,---,0.00,0.00,VWS V14.00,2013-02-22 05:21:00,
2013-02-21 23:26:00,21.1,12.5,30.15,ENE,67,2.0,10.0,69,0.00,,---,0.00,0.00,VWS V14.00,2013-02-22 05:26:00,
2013-02-21 23:31:00,21.1,12.2,30.15,NNE,25,0.0,7.0,68,0.00,,---,0.00,0.00,VWS V14.00,2013-02-22 05:31:00,
2013-02-21 23:36:00,21.2,12.3,30.15,North,360,0.0,7.0,68,0.00,,---,0.00,0.00,VWS V14.00,2013-02-22 05:36:00,
2013-02-21 23:41:00,21.2,12.3,30.14,NNE,25,1.0,7.0,68,0.00,,---,0.00,0.00,VWS V14.00,2013-02-22 05:41:00,
2013-02-21 23:47:00,21.2,12.3,30.14,NNE,22,0.0,9.0,68,0.00,,---,0.00,0.00,VWS V14.00,2013-02-22 05:47:00,
2013-02-21 23:52:00,21.2,12.6,30.14,North,360,4.0,9.0,69,0.00,,---,0.00,0.00,VWS V14.00,2013-02-22 05:52:00,
2013-02-21 23:57:00,21.2,12.6,30.14,North,10,4.0,9.0,69,0.00,,---,0.00,0.00,VWS V14.00,2013-02-22 05:57:00,